Hatboro, PA

5:21 PM EST on January 30, 2015 (GMT -0500)
Northeast Philadelphia | Change Station
CLOSE
Current Station
Airport
Location: Northeast Philadelphia,
Elevation: 121 ft
Nearby Weather Stations
Active Advisory: Wind Advisory Active Notice: Public Information Statement

Elev 121 ft 40.08 °N, 75.01 °W | Updated 16 minutes ago

Mostly Cloudy
Mostly Cloudy
33 °F
Feels Like 22 °F
N
18
Wind Variable Wind from WNW

Today
High -- | Low -- °F
--% Chance of Precip.
Yesterday
High -- | Low -- °F
Precip. -- in
7:11 AM 5:16 PM
Waxing Gibbous, 85% visible
Pressure 29.99 in
Visibility 0.1 miles
Clouds Mostly Cloudy 1200 ft
Mostly Cloudy 2000 ft
Overcast 4800 ft
Windchill 22 °F
Dew Point 26 °F
Humidity 75%
Rainfall 0.00 in
Snow Depth Not available.
UV 0 out of 12
Pollen .10 out of 12
Air Quality Not available.
Flu Activity Not available.
SPECI KPNE 302205Z 30016KT 1/8SM +SN BKN012 BKN020 OVC048 01/M03 A2999 RMK AO2 SFC VIS 1/4 P0000 T00061033 RVRNO

More Conditions Fewer Conditions

Pressure 29.99 in
Visibility 0.1 miles
Clouds Mostly Cloudy 1200 ft
Mostly Cloudy 2000 ft
Overcast 4800 ft
Windchill 22 °F
Dew Point 26 °F
Humidity 75%
Rainfall 0.00 in
Snow Depth Not available.
UV 0 out of 12
Pollen .10 out of 12
Air Quality Not available.
Flu Activity Not available.
SPECI KPNE 302205Z 30016KT 1/8SM +SN BKN012 BKN020 OVC048 01/M03 A2999 RMK AO2 SFC VIS 1/4 P0000 T00061033 RVRNO

More Conditions Fewer Conditions

Nowcast | as of 5:11 PM EST on January 30, 2015

More scattered snow showers will cross the region through the evening hours from the northwest. Some of the showers are capable of producing moderate to heavy snowfall rates with a quick half an inch accumulation possible. The more intense showers will drop visibilities below one-half mile at times. Strong northwest winds, upwards of 40 mph, will make temperatures feel like they are in the teens this evening.

×

10-Day Weather Forecast

Almanac

Astronomy

Jan. 30, 2015 Rise Set
Actual Time
Civil Twilight
Nautical Twilight
Astronomical Twilight
Moon
Length of Visible Light
Length of Day
Tomorrow will be .
, % of the Moon is Illuminated

Today's Extremes

State Highs State Lows

Community

WunderPhotos

Upload Photos

1,791,904 photos uploaded!

WunderBlogs® & News

Nearby

Air Quality

  Air Quality AQ Index Pollutant
Not available.

Snow Depth

Station Depth Elevation

Earthquake Activity

City Distance Mag. Time & Date
Minimum magnitude displayed is 2.5.

Coastal Water Temperatures

Place Temperature

Nearby Weather Stations